sensor_id;sensor_type;location;lat;lon;timestamp;P1;durP1;ratioP1;P2;durP2;ratioP2
7213;SDS011;3648;50.614;13.830;2022-09-09T00:01:08;2.37;;;1.77;;
7213;SDS011;3648;50.614;13.830;2022-09-09T00:03:43;2.17;;;1.80;;
7213;SDS011;3648;50.614;13.830;2022-09-09T00:06:17;5.00;;;1.70;;
7213;SDS011;3648;50.614;13.830;2022-09-09T00:08:51;2.97;;;1.67;;
7213;SDS011;3648;50.614;13.830;2022-09-09T00:11:26;3.20;;;1.57;;
7213;SDS011;3648;50.614;13.830;2022-09-09T00:14:02;1.90;;;1.60;;
7213;SDS011;3648;50.614;13.830;2022-09-09T00:16:36;2.50;;;1.60;;
7213;SDS011;3648;50.614;13.830;2022-09-09T00:19:12;3.33;;;2.30;;
7213;SDS011;3648;50.614;13.830;2022-09-09T00:21:50;2.00;;;1.77;;
7213;SDS011;3648;50.614;13.830;2022-09-09T00:24:29;2.10;;;1.90;;
7213;SDS011;3648;50.614;13.830;2022-09-09T00:27:06;3.67;;;2.10;;
7213;SDS011;3648;50.614;13.830;2022-09-09T00:29:41;3.63;;;2.03;;
7213;SDS011;3648;50.614;13.830;2022-09-09T00:32:12;2.93;;;2.00;;
7213;SDS011;3648;50.614;13.830;2022-09-09T00:34:43;3.03;;;1.87;;
7213;SDS011;3648;50.614;13.830;2022-09-09T00:37:14;2.27;;;1.50;;
7213;SDS011;3648;50.614;13.830;2022-09-09T00:39:44;2.20;;;2.00;;
7213;SDS011;3648;50.614;13.830;2022-09-09T00:42:14;1.77;;;1.63;;
7213;SDS011;3648;50.614;13.830;2022-09-09T00:44:51;3.53;;;2.00;;
7213;SDS011;3648;50.614;13.830;2022-09-09T00:47:41;2.13;;;1.90;;
7213;SDS011;3648;50.614;13.830;2022-09-09T00:53:13;3.43;;;2.10;;
7213;SDS011;3648;50.614;13.830;2022-09-09T00:55:54;3.30;;;2.37;;
7213;SDS011;3648;50.614;13.830;2022-09-09T00:58:30;1.87;;;1.67;;
7213;SDS011;3648;50.614;13.830;2022-09-09T01:00:59;1.70;;;1.60;;
7213;SDS011;3648;50.614;13.830;2022-09-09T01:03:34;2.13;;;1.93;;
7213;SDS011;3648;50.614;13.830;2022-09-09T01:06:13;2.57;;;1.93;;
7213;SDS011;3648;50.614;13.830;2022-09-09T01:08:48;2.93;;;2.00;;
7213;SDS011;3648;50.614;13.830;2022-09-09T01:11:29;2.90;;;2.23;;
7213;SDS011;3648;50.614;13.830;2022-09-09T01:14:05;2.63;;;1.83;;
7213;SDS011;3648;50.614;13.830;2022-09-09T01:16:43;2.20;;;1.90;;
7213;SDS011;3648;50.614;13.830;2022-09-09T01:19:14;2.10;;;1.90;;
7213;SDS011;3648;50.614;13.830;2022-09-09T01:21:50;2.67;;;1.63;;
7213;SDS011;3648;50.614;13.830;2022-09-09T01:24:24;2.13;;;1.70;;
7213;SDS011;3648;50.614;13.830;2022-09-09T01:27:02;2.13;;;1.53;;
7213;SDS011;3648;50.614;13.830;2022-09-09T01:29:32;2.33;;;1.40;;
7213;SDS011;3648;50.614;13.830;2022-09-09T01:32:00;2.00;;;1.70;;
7213;SDS011;3648;50.614;13.830;2022-09-09T01:34:29;1.50;;;1.40;;
7213;SDS011;3648;50.614;13.830;2022-09-09T01:37:00;1.73;;;1.53;;
7213;SDS011;3648;50.614;13.830;2022-09-09T01:39:31;2.13;;;1.60;;
7213;SDS011;3648;50.614;13.830;2022-09-09T01:41:59;2.20;;;1.83;;
7213;SDS011;3648;50.614;13.830;2022-09-09T01:44:29;2.43;;;1.37;;
7213;SDS011;3648;50.614;13.830;2022-09-09T01:46:57;1.80;;;1.70;;
7213;SDS011;3648;50.614;13.830;2022-09-09T01:49:24;2.90;;;1.87;;
7213;SDS011;3648;50.614;13.830;2022-09-09T01:51:51;1.70;;;1.60;;
7213;SDS011;3648;50.614;13.830;2022-09-09T01:54:23;1.50;;;1.40;;
7213;SDS011;3648;50.614;13.830;2022-09-09T01:56:56;1.63;;;1.53;;
7213;SDS011;3648;50.614;13.830;2022-09-09T01:59:45;2.90;;;1.87;;
7213;SDS011;3648;50.614;13.830;2022-09-09T02:02:21;3.93;;;2.20;;
7213;SDS011;3648;50.614;13.830;2022-09-09T02:04:54;2.93;;;2.63;;
7213;SDS011;3648;50.614;13.830;2022-09-09T02:07:28;2.33;;;2.13;;
7213;SDS011;3648;50.614;13.830;2022-09-09T02:10:05;2.60;;;2.30;;
7213;SDS011;3648;50.614;13.830;2022-09-09T02:12:40;4.60;;;2.87;;
7213;SDS011;3648;50.614;13.830;2022-09-09T02:15:11;4.37;;;2.40;;
7213;SDS011;3648;50.614;13.830;2022-09-09T02:17:43;2.47;;;2.27;;
7213;SDS011;3648;50.614;13.830;2022-09-09T02:20:13;2.47;;;2.27;;
7213;SDS011;3648;50.614;13.830;2022-09-09T02:22:42;2.83;;;2.63;;
7213;SDS011;3648;50.614;13.830;2022-09-09T02:25:12;3.63;;;2.37;;
7213;SDS011;3648;50.614;13.830;2022-09-09T02:27:43;3.57;;;2.20;;
7213;SDS011;3648;50.614;13.830;2022-09-09T02:30:13;3.17;;;2.87;;
7213;SDS011;3648;50.614;13.830;2022-09-09T02:32:41;3.30;;;2.03;;
7213;SDS011;3648;50.614;13.830;2022-09-09T02:35:11;3.13;;;2.60;;
7213;SDS011;3648;50.614;13.830;2022-09-09T02:37:41;2.40;;;2.20;;
7213;SDS011;3648;50.614;13.830;2022-09-09T02:40:11;2.77;;;2.33;;
7213;SDS011;3648;50.614;13.830;2022-09-09T02:42:40;2.87;;;2.53;;
7213;SDS011;3648;50.614;13.830;2022-09-09T02:45:10;3.63;;;2.87;;
7213;SDS011;3648;50.614;13.830;2022-09-09T02:47:41;3.30;;;2.53;;
7213;SDS011;3648;50.614;13.830;2022-09-09T02:50:15;3.10;;;2.80;;
7213;SDS011;3648;50.614;13.830;2022-09-09T02:52:48;3.73;;;2.60;;
7213;SDS011;3648;50.614;13.830;2022-09-09T02:55:31;2.93;;;2.47;;
7213;SDS011;3648;50.614;13.830;2022-09-09T02:58:05;2.93;;;2.73;;
7213;SDS011;3648;50.614;13.830;2022-09-09T03:00:37;2.67;;;2.40;;
7213;SDS011;3648;50.614;13.830;2022-09-09T03:03:06;2.73;;;2.50;;
7213;SDS011;3648;50.614;13.830;2022-09-09T03:05:34;4.60;;;2.67;;
7213;SDS011;3648;50.614;13.830;2022-09-09T03:08:01;2.93;;;2.67;;
7213;SDS011;3648;50.614;13.830;2022-09-09T03:10:29;4.13;;;2.90;;
7213;SDS011;3648;50.614;13.830;2022-09-09T03:12:56;3.90;;;2.93;;
7213;SDS011;3648;50.614;13.830;2022-09-09T03:15:23;3.27;;;2.97;;
7213;SDS011;3648;50.614;13.830;2022-09-09T03:17:56;4.73;;;3.37;;
7213;SDS011;3648;50.614;13.830;2022-09-09T03:20:24;5.20;;;4.13;;
7213;SDS011;3648;50.614;13.830;2022-09-09T03:22:51;4.20;;;3.80;;
7213;SDS011;3648;50.614;13.830;2022-09-09T03:25:19;4.40;;;4.00;;
7213;SDS011;3648;50.614;13.830;2022-09-09T03:27:48;3.90;;;3.37;;
7213;SDS011;3648;50.614;13.830;2022-09-09T03:30:18;4.30;;;3.90;;
7213;SDS011;3648;50.614;13.830;2022-09-09T03:32:45;4.17;;;3.80;;
7213;SDS011;3648;50.614;13.830;2022-09-09T03:35:13;4.20;;;3.80;;
7213;SDS011;3648;50.614;13.830;2022-09-09T03:37:40;5.43;;;4.97;;
7213;SDS011;3648;50.614;13.830;2022-09-09T03:40:08;4.83;;;3.97;;
7213;SDS011;3648;50.614;13.830;2022-09-09T03:42:36;4.67;;;4.07;;
7213;SDS011;3648;50.614;13.830;2022-09-09T03:45:04;4.70;;;3.90;;
7213;SDS011;3648;50.614;13.830;2022-09-09T03:47:31;3.93;;;3.60;;
7213;SDS011;3648;50.614;13.830;2022-09-09T03:49:59;4.10;;;2.90;;
7213;SDS011;3648;50.614;13.830;2022-09-09T03:52:27;3.27;;;2.97;;
7213;SDS011;3648;50.614;13.830;2022-09-09T03:54:55;3.30;;;3.00;;
7213;SDS011;3648;50.614;13.830;2022-09-09T03:57:22;3.53;;;3.23;;
7213;SDS011;3648;50.614;13.830;2022-09-09T03:59:49;4.07;;;3.67;;
7213;SDS011;3648;50.614;13.830;2022-09-09T04:02:16;4.33;;;3.90;;
7213;SDS011;3648;50.614;13.830;2022-09-09T04:04:43;4.30;;;3.90;;
7213;SDS011;3648;50.614;13.830;2022-09-09T04:07:12;4.70;;;3.70;;
7213;SDS011;3648;50.614;13.830;2022-09-09T04:09:41;5.07;;;4.47;;
7213;SDS011;3648;50.614;13.830;2022-09-09T04:12:08;4.63;;;4.30;;
7213;SDS011;3648;50.614;13.830;2022-09-09T04:14:38;4.77;;;4.37;;
7213;SDS011;3648;50.614;13.830;2022-09-09T04:17:05;5.87;;;5.10;;
7213;SDS011;3648;50.614;13.830;2022-09-09T04:19:33;5.03;;;4.50;;
7213;SDS011;3648;50.614;13.830;2022-09-09T04:22:00;5.37;;;4.63;;
7213;SDS011;3648;50.614;13.830;2022-09-09T04:24:27;6.13;;;5.27;;
7213;SDS011;3648;50.614;13.830;2022-09-09T04:26:56;5.70;;;5.03;;
7213;SDS011;3648;50.614;13.830;2022-09-09T04:29:23;5.67;;;5.13;;
7213;SDS011;3648;50.614;13.830;2022-09-09T04:31:50;5.33;;;4.83;;
7213;SDS011;3648;50.614;13.830;2022-09-09T04:34:18;6.40;;;5.80;;
7213;SDS011;3648;50.614;13.830;2022-09-09T04:36:45;6.63;;;6.03;;
7213;SDS011;3648;50.614;13.830;2022-09-09T04:39:12;19.20;;;7.07;;
7213;SDS011;3648;50.614;13.830;2022-09-09T04:41:39;7.07;;;6.07;;
7213;SDS011;3648;50.614;13.830;2022-09-09T04:44:08;7.20;;;6.20;;
7213;SDS011;3648;50.614;13.830;2022-09-09T04:46:35;7.90;;;5.50;;
7213;SDS011;3648;50.614;13.830;2022-09-09T04:49:03;7.40;;;5.80;;
7213;SDS011;3648;50.614;13.830;2022-09-09T04:51:30;7.90;;;6.60;;
7213;SDS011;3648;50.614;13.830;2022-09-09T04:53:57;8.17;;;5.70;;
7213;SDS011;3648;50.614;13.830;2022-09-09T04:56:24;9.57;;;6.67;;
7213;SDS011;3648;50.614;13.830;2022-09-09T04:58:53;10.37;;;5.87;;
7213;SDS011;3648;50.614;13.830;2022-09-09T05:01:22;11.00;;;6.27;;
7213;SDS011;3648;50.614;13.830;2022-09-09T05:03:49;8.10;;;5.50;;
7213;SDS011;3648;50.614;13.830;2022-09-09T05:06:19;9.30;;;6.63;;
7213;SDS011;3648;50.614;13.830;2022-09-09T05:08:47;6.73;;;6.00;;
7213;SDS011;3648;50.614;13.830;2022-09-09T05:11:18;6.77;;;5.70;;
7213;SDS011;3648;50.614;13.830;2022-09-09T05:13:47;7.70;;;5.90;;
7213;SDS011;3648;50.614;13.830;2022-09-09T05:16:15;9.37;;;6.13;;
7213;SDS011;3648;50.614;13.830;2022-09-09T05:18:44;6.23;;;5.63;;
7213;SDS011;3648;50.614;13.830;2022-09-09T05:21:12;6.77;;;6.10;;
7213;SDS011;3648;50.614;13.830;2022-09-09T05:23:40;6.47;;;5.70;;
7213;SDS011;3648;50.614;13.830;2022-09-09T05:26:09;6.43;;;5.60;;
7213;SDS011;3648;50.614;13.830;2022-09-09T05:28:39;7.33;;;5.77;;
7213;SDS011;3648;50.614;13.830;2022-09-09T05:31:07;5.87;;;5.27;;
7213;SDS011;3648;50.614;13.830;2022-09-09T05:33:36;6.10;;;5.50;;
7213;SDS011;3648;50.614;13.830;2022-09-09T05:36:07;7.47;;;5.87;;
7213;SDS011;3648;50.614;13.830;2022-09-09T05:38:36;5.70;;;5.10;;
7213;SDS011;3648;50.614;13.830;2022-09-09T05:41:03;6.37;;;5.60;;
7213;SDS011;3648;50.614;13.830;2022-09-09T05:43:31;6.93;;;5.60;;
7213;SDS011;3648;50.614;13.830;2022-09-09T05:46:01;6.47;;;5.33;;
7213;SDS011;3648;50.614;13.830;2022-09-09T05:48:30;7.17;;;5.60;;
7213;SDS011;3648;50.614;13.830;2022-09-09T05:50:59;6.73;;;6.10;;
7213;SDS011;3648;50.614;13.830;2022-09-09T05:53:29;7.53;;;5.33;;
7213;SDS011;3648;50.614;13.830;2022-09-09T05:55:59;6.67;;;5.90;;
7213;SDS011;3648;50.614;13.830;2022-09-09T05:58:28;6.57;;;5.37;;
7213;SDS011;3648;50.614;13.830;2022-09-09T06:01:00;6.20;;;5.60;;
7213;SDS011;3648;50.614;13.830;2022-09-09T06:03:28;5.70;;;5.00;;
7213;SDS011;3648;50.614;13.830;2022-09-09T06:05:58;6.00;;;5.40;;
7213;SDS011;3648;50.614;13.830;2022-09-09T06:08:26;5.00;;;4.60;;
7213;SDS011;3648;50.614;13.830;2022-09-09T06:11:00;5.77;;;4.70;;
7213;SDS011;3648;50.614;13.830;2022-09-09T06:13:29;4.77;;;4.37;;
7213;SDS011;3648;50.614;13.830;2022-09-09T06:15:57;4.20;;;3.53;;
7213;SDS011;3648;50.614;13.830;2022-09-09T06:18:24;3.87;;;3.57;;
7213;SDS011;3648;50.614;13.830;2022-09-09T06:20:55;4.40;;;4.00;;
7213;SDS011;3648;50.614;13.830;2022-09-09T06:23:24;4.03;;;3.63;;
7213;SDS011;3648;50.614;13.830;2022-09-09T06:25:59;4.30;;;3.90;;
7213;SDS011;3648;50.614;13.830;2022-09-09T06:28:28;4.40;;;4.00;;
7213;SDS011;3648;50.614;13.830;2022-09-09T06:30:57;4.43;;;3.80;;
7213;SDS011;3648;50.614;13.830;2022-09-09T06:33:25;4.83;;;4.43;;
7213;SDS011;3648;50.614;13.830;2022-09-09T06:35:52;5.13;;;4.63;;
7213;SDS011;3648;50.614;13.830;2022-09-09T06:38:22;5.47;;;4.73;;
7213;SDS011;3648;50.614;13.830;2022-09-09T06:40:54;8.97;;;4.80;;
7213;SDS011;3648;50.614;13.830;2022-09-09T06:43:22;5.43;;;4.93;;
7213;SDS011;3648;50.614;13.830;2022-09-09T06:45:53;5.23;;;4.47;;
7213;SDS011;3648;50.614;13.830;2022-09-09T06:48:22;5.33;;;4.83;;
7213;SDS011;3648;50.614;13.830;2022-09-09T06:50:50;6.30;;;5.70;;
7213;SDS011;3648;50.614;13.830;2022-09-09T06:53:19;6.47;;;5.77;;
7213;SDS011;3648;50.614;13.830;2022-09-09T06:55:46;6.57;;;5.97;;
7213;SDS011;3648;50.614;13.830;2022-09-09T06:58:14;5.60;;;5.10;;
7213;SDS011;3648;50.614;13.830;2022-09-09T07:00:41;5.97;;;5.37;;
7213;SDS011;3648;50.614;13.830;2022-09-09T07:03:09;5.53;;;5.03;;
7213;SDS011;3648;50.614;13.830;2022-09-09T07:05:36;6.23;;;5.63;;
7213;SDS011;3648;50.614;13.830;2022-09-09T07:08:04;6.03;;;5.43;;
7213;SDS011;3648;50.614;13.830;2022-09-09T07:10:31;6.07;;;5.47;;
7213;SDS011;3648;50.614;13.830;2022-09-09T07:12:59;5.27;;;4.77;;
7213;SDS011;3648;50.614;13.830;2022-09-09T07:15:28;6.80;;;6.10;;
7213;SDS011;3648;50.614;13.830;2022-09-09T07:18:00;5.83;;;5.30;;
7213;SDS011;3648;50.614;13.830;2022-09-09T07:20:27;5.53;;;4.90;;
7213;SDS011;3648;50.614;13.830;2022-09-09T07:22:55;5.30;;;4.53;;
7213;SDS011;3648;50.614;13.830;2022-09-09T07:25:23;5.30;;;4.80;;
7213;SDS011;3648;50.614;13.830;2022-09-09T07:27:51;5.27;;;4.80;;
7213;SDS011;3648;50.614;13.830;2022-09-09T07:30:19;4.77;;;4.37;;
7213;SDS011;3648;50.614;13.830;2022-09-09T07:32:48;6.63;;;4.30;;
7213;SDS011;3648;50.614;13.830;2022-09-09T07:35:17;3.93;;;3.37;;
7213;SDS011;3648;50.614;13.830;2022-09-09T07:37:45;4.13;;;3.73;;
7213;SDS011;3648;50.614;13.830;2022-09-09T07:40:12;3.87;;;3.47;;
7213;SDS011;3648;50.614;13.830;2022-09-09T07:42:40;3.67;;;3.37;;
7213;SDS011;3648;50.614;13.830;2022-09-09T07:45:07;4.10;;;3.43;;
7213;SDS011;3648;50.614;13.830;2022-09-09T07:47:34;3.17;;;2.80;;
7213;SDS011;3648;50.614;13.830;2022-09-09T07:50:03;3.33;;;2.97;;
7213;SDS011;3648;50.614;13.830;2022-09-09T07:52:30;3.90;;;3.50;;
7213;SDS011;3648;50.614;13.830;2022-09-09T07:54:57;3.80;;;3.40;;
7213;SDS011;3648;50.614;13.830;2022-09-09T07:57:25;3.73;;;3.20;;
7213;SDS011;3648;50.614;13.830;2022-09-09T07:59:52;2.90;;;2.60;;
7213;SDS011;3648;50.614;13.830;2022-09-09T08:02:19;3.20;;;2.70;;
7213;SDS011;3648;50.614;13.830;2022-09-09T08:04:46;2.97;;;2.77;;
7213;SDS011;3648;50.614;13.830;2022-09-09T08:07:15;3.80;;;3.10;;
7213;SDS011;3648;50.614;13.830;2022-09-09T08:09:42;3.00;;;2.70;;
7213;SDS011;3648;50.614;13.830;2022-09-09T08:12:09;11.87;;;10.17;;
7213;SDS011;3648;50.614;13.830;2022-09-09T08:14:38;4.23;;;3.83;;
7213;SDS011;3648;50.614;13.830;2022-09-09T08:17:05;3.90;;;3.13;;
7213;SDS011;3648;50.614;13.830;2022-09-09T08:19:33;3.73;;;3.10;;
7213;SDS011;3648;50.614;13.830;2022-09-09T08:22:01;2.97;;;2.40;;
7213;SDS011;3648;50.614;13.830;2022-09-09T08:24:29;2.47;;;2.27;;
7213;SDS011;3648;50.614;13.830;2022-09-09T08:26:56;2.90;;;2.37;;
7213;SDS011;3648;50.614;13.830;2022-09-09T08:29:23;3.23;;;2.17;;
7213;SDS011;3648;50.614;13.830;2022-09-09T08:31:51;3.63;;;2.00;;
7213;SDS011;3648;50.614;13.830;2022-09-09T08:34:20;2.07;;;1.87;;
7213;SDS011;3648;50.614;13.830;2022-09-09T08:36:48;3.93;;;2.30;;
7213;SDS011;3648;50.614;13.830;2022-09-09T08:39:16;2.20;;;2.00;;
7213;SDS011;3648;50.614;13.830;2022-09-09T08:41:52;2.67;;;2.30;;
7213;SDS011;3648;50.614;13.830;2022-09-09T08:44:37;2.00;;;1.80;;
7213;SDS011;3648;50.614;13.830;2022-09-09T08:47:17;3.30;;;1.83;;
7213;SDS011;3648;50.614;13.830;2022-09-09T08:49:54;2.13;;;1.93;;
7213;SDS011;3648;50.614;13.830;2022-09-09T08:52:30;5.73;;;2.20;;
7213;SDS011;3648;50.614;13.830;2022-09-09T08:55:05;2.13;;;1.90;;
7213;SDS011;3648;50.614;13.830;2022-09-09T08:57:43;2.20;;;1.57;;
7213;SDS011;3648;50.614;13.830;2022-09-09T09:00:11;1.53;;;1.30;;
7213;SDS011;3648;50.614;13.830;2022-09-09T09:02:40;2.50;;;1.40;;
7213;SDS011;3648;50.614;13.830;2022-09-09T09:05:16;1.60;;;1.40;;
7213;SDS011;3648;50.614;13.830;2022-09-09T09:07:51;3.07;;;1.60;;
7213;SDS011;3648;50.614;13.830;2022-09-09T09:10:31;2.73;;;1.63;;
7213;SDS011;3648;50.614;13.830;2022-09-09T09:13:14;3.80;;;2.10;;
7213;SDS011;3648;50.614;13.830;2022-09-09T09:15:46;4.93;;;1.70;;
7213;SDS011;3648;50.614;13.830;2022-09-09T09:18:18;4.03;;;1.83;;
7213;SDS011;3648;50.614;13.830;2022-09-09T09:20:50;2.00;;;1.80;;
7213;SDS011;3648;50.614;13.830;2022-09-09T09:23:24;3.37;;;1.83;;
7213;SDS011;3648;50.614;13.830;2022-09-09T09:25:55;3.90;;;2.07;;
7213;SDS011;3648;50.614;13.830;2022-09-09T09:28:31;8.00;;;3.53;;
7213;SDS011;3648;50.614;13.830;2022-09-09T09:31:01;3.23;;;2.23;;
7213;SDS011;3648;50.614;13.830;2022-09-09T09:33:33;3.30;;;2.03;;
7213;SDS011;3648;50.614;13.830;2022-09-09T09:36:06;5.23;;;2.07;;
7213;SDS011;3648;50.614;13.830;2022-09-09T09:38:34;3.93;;;2.23;;
7213;SDS011;3648;50.614;13.830;2022-09-09T09:41:02;3.20;;;2.30;;
7213;SDS011;3648;50.614;13.830;2022-09-09T09:43:32;6.07;;;2.43;;
7213;SDS011;3648;50.614;13.830;2022-09-09T09:46:00;3.90;;;1.83;;
7213;SDS011;3648;50.614;13.830;2022-09-09T09:48:30;2.80;;;2.20;;
7213;SDS011;3648;50.614;13.830;2022-09-09T09:50:59;2.57;;;1.90;;
7213;SDS011;3648;50.614;13.830;2022-09-09T09:53:28;3.73;;;1.97;;
7213;SDS011;3648;50.614;13.830;2022-09-09T09:55:57;2.60;;;2.17;;
7213;SDS011;3648;50.614;13.830;2022-09-09T09:58:26;3.17;;;1.97;;
7213;SDS011;3648;50.614;13.830;2022-09-09T10:00:59;3.17;;;1.70;;
7213;SDS011;3648;50.614;13.830;2022-09-09T10:03:28;2.63;;;1.87;;
7213;SDS011;3648;50.614;13.830;2022-09-09T10:05:57;4.00;;;1.77;;
7213;SDS011;3648;50.614;13.830;2022-09-09T10:08:24;3.90;;;2.33;;
7213;SDS011;3648;50.614;13.830;2022-09-09T10:10:55;4.63;;;2.27;;
7213;SDS011;3648;50.614;13.830;2022-09-09T10:13:47;3.17;;;2.17;;
7213;SDS011;3648;50.614;13.830;2022-09-09T10:16:33;3.27;;;1.80;;
7213;SDS011;3648;50.614;13.830;2022-09-09T10:19:13;3.70;;;2.90;;
7213;SDS011;3648;50.614;13.830;2022-09-09T10:21:53;4.63;;;2.37;;
7213;SDS011;3648;50.614;13.830;2022-09-09T10:24:39;4.47;;;2.07;;
7213;SDS011;3648;50.614;13.830;2022-09-09T10:27:26;5.50;;;2.10;;
7213;SDS011;3648;50.614;13.830;2022-09-09T10:30:04;3.43;;;1.97;;
7213;SDS011;3648;50.614;13.830;2022-09-09T10:32:41;5.47;;;2.87;;
7213;SDS011;3648;50.614;13.830;2022-09-09T10:35:22;5.97;;;2.50;;
7213;SDS011;3648;50.614;13.830;2022-09-09T10:37:58;4.23;;;2.33;;
7213;SDS011;3648;50.614;13.830;2022-09-09T10:40:47;3.40;;;2.53;;
7213;SDS011;3648;50.614;13.830;2022-09-09T10:46:22;4.57;;;2.30;;
7213;SDS011;3648;50.614;13.830;2022-09-09T10:49:02;5.67;;;2.87;;
7213;SDS011;3648;50.614;13.830;2022-09-09T10:51:39;3.87;;;3.00;;
7213;SDS011;3648;50.614;13.830;2022-09-09T10:54:21;4.40;;;2.17;;
7213;SDS011;3648;50.614;13.830;2022-09-09T10:56:58;10.87;;;4.00;;
7213;SDS011;3648;50.614;13.830;2022-09-09T10:59:29;5.53;;;3.13;;
7213;SDS011;3648;50.614;13.830;2022-09-09T11:01:59;5.83;;;3.10;;
7213;SDS011;3648;50.614;13.830;2022-09-09T11:04:35;7.93;;;3.20;;
7213;SDS011;3648;50.614;13.830;2022-09-09T11:07:08;4.93;;;3.03;;
7213;SDS011;3648;50.614;13.830;2022-09-09T11:09:41;4.60;;;3.50;;
7213;SDS011;3648;50.614;13.830;2022-09-09T11:12:16;3.03;;;2.37;;
7213;SDS011;3648;50.614;13.830;2022-09-09T11:14:45;3.43;;;2.50;;
7213;SDS011;3648;50.614;13.830;2022-09-09T11:17:16;2.57;;;1.90;;
7213;SDS011;3648;50.614;13.830;2022-09-09T11:19:49;3.90;;;2.13;;
7213;SDS011;3648;50.614;13.830;2022-09-09T11:22:21;3.00;;;2.10;;
7213;SDS011;3648;50.614;13.830;2022-09-09T11:24:57;4.47;;;2.03;;
7213;SDS011;3648;50.614;13.830;2022-09-09T11:27:27;3.97;;;1.40;;
7213;SDS011;3648;50.614;13.830;2022-09-09T11:30:04;2.57;;;1.87;;
7213;SDS011;3648;50.614;13.830;2022-09-09T11:32:52;4.63;;;2.00;;
7213;SDS011;3648;50.614;13.830;2022-09-09T11:35:40;4.10;;;1.97;;
7213;SDS011;3648;50.614;13.830;2022-09-09T11:38:21;4.17;;;1.80;;
7213;SDS011;3648;50.614;13.830;2022-09-09T11:40:59;3.20;;;1.83;;
7213;SDS011;3648;50.614;13.830;2022-09-09T11:43:29;2.07;;;1.70;;
7213;SDS011;3648;50.614;13.830;2022-09-09T11:46:00;3.70;;;1.80;;
7213;SDS011;3648;50.614;13.830;2022-09-09T11:48:31;2.27;;;1.67;;
7213;SDS011;3648;50.614;13.830;2022-09-09T11:51:02;3.07;;;2.00;;
7213;SDS011;3648;50.614;13.830;2022-09-09T11:53:32;2.30;;;1.50;;
7213;SDS011;3648;50.614;13.830;2022-09-09T11:56:00;4.60;;;1.50;;
7213;SDS011;3648;50.614;13.830;2022-09-09T11:58:38;1.60;;;1.47;;
7213;SDS011;3648;50.614;13.830;2022-09-09T12:01:14;3.10;;;1.20;;
7213;SDS011;3648;50.614;13.830;2022-09-09T12:03:45;5.13;;;1.97;;
7213;SDS011;3648;50.614;13.830;2022-09-09T12:06:25;2.33;;;1.53;;
7213;SDS011;3648;50.614;13.830;2022-09-09T12:08:58;4.47;;;1.90;;
7213;SDS011;3648;50.614;13.830;2022-09-09T12:11:33;2.70;;;1.53;;
7213;SDS011;3648;50.614;13.830;2022-09-09T12:14:01;3.70;;;1.57;;
7213;SDS011;3648;50.614;13.830;2022-09-09T12:16:29;1.90;;;0.93;;
7213;SDS011;3648;50.614;13.830;2022-09-09T12:19:05;3.43;;;1.43;;
7213;SDS011;3648;50.614;13.830;2022-09-09T12:21:42;7.47;;;6.57;;
7213;SDS011;3648;50.614;13.830;2022-09-09T12:24:17;2.97;;;2.10;;
7213;SDS011;3648;50.614;13.830;2022-09-09T12:26:52;2.10;;;1.90;;
7213;SDS011;3648;50.614;13.830;2022-09-09T12:29:25;5.07;;;3.60;;
7213;SDS011;3648;50.614;13.830;2022-09-09T12:32:00;4.13;;;1.77;;
7213;SDS011;3648;50.614;13.830;2022-09-09T12:34:34;6.77;;;5.40;;
7213;SDS011;3648;50.614;13.830;2022-09-09T12:37:08;4.77;;;3.67;;
7213;SDS011;3648;50.614;13.830;2022-09-09T12:39:44;2.90;;;1.80;;
7213;SDS011;3648;50.614;13.830;2022-09-09T12:42:18;3.43;;;1.93;;
7213;SDS011;3648;50.614;13.830;2022-09-09T12:44:53;2.40;;;1.17;;
7213;SDS011;3648;50.614;13.830;2022-09-09T12:47:23;5.40;;;1.20;;
7213;SDS011;3648;50.614;13.830;2022-09-09T12:49:54;2.53;;;1.37;;
7213;SDS011;3648;50.614;13.830;2022-09-09T12:52:25;2.47;;;1.10;;
7213;SDS011;3648;50.614;13.830;2022-09-09T12:54:59;1.73;;;1.27;;
7213;SDS011;3648;50.614;13.830;2022-09-09T12:57:31;2.63;;;1.77;;
7213;SDS011;3648;50.614;13.830;2022-09-09T13:00:05;1.53;;;1.10;;
7213;SDS011;3648;50.614;13.830;2022-09-09T13:02:45;1.53;;;1.33;;
7213;SDS011;3648;50.614;13.830;2022-09-09T13:05:16;1.40;;;1.13;;
7213;SDS011;3648;50.614;13.830;2022-09-09T13:07:47;2.37;;;1.33;;
7213;SDS011;3648;50.614;13.830;2022-09-09T13:10:15;3.00;;;1.30;;
7213;SDS011;3648;50.614;13.830;2022-09-09T13:12:48;1.67;;;1.00;;
7213;SDS011;3648;50.614;13.830;2022-09-09T13:15:19;2.50;;;0.80;;
7213;SDS011;3648;50.614;13.830;2022-09-09T13:17:52;1.73;;;1.20;;
7213;SDS011;3648;50.614;13.830;2022-09-09T13:20:21;16.40;;;2.03;;
7213;SDS011;3648;50.614;13.830;2022-09-09T13:22:51;3.23;;;0.87;;
7213;SDS011;3648;50.614;13.830;2022-09-09T13:25:22;1.33;;;0.80;;
7213;SDS011;3648;50.614;13.830;2022-09-09T13:27:55;1.00;;;0.67;;
7213;SDS011;3648;50.614;13.830;2022-09-09T13:30:26;1.30;;;0.83;;
7213;SDS011;3648;50.614;13.830;2022-09-09T13:32:59;1.23;;;0.80;;
7213;SDS011;3648;50.614;13.830;2022-09-09T13:35:28;2.87;;;0.80;;
7213;SDS011;3648;50.614;13.830;2022-09-09T13:37:57;0.93;;;0.77;;
7213;SDS011;3648;50.614;13.830;2022-09-09T13:40:26;0.97;;;0.70;;
7213;SDS011;3648;50.614;13.830;2022-09-09T13:42:56;0.73;;;0.70;;
7213;SDS011;3648;50.614;13.830;2022-09-09T13:45:24;1.53;;;0.70;;
7213;SDS011;3648;50.614;13.830;2022-09-09T13:47:53;1.13;;;0.60;;
7213;SDS011;3648;50.614;13.830;2022-09-09T13:50:22;1.50;;;1.10;;
7213;SDS011;3648;50.614;13.830;2022-09-09T13:52:54;0.83;;;0.77;;
7213;SDS011;3648;50.614;13.830;2022-09-09T13:55:25;1.60;;;0.90;;
7213;SDS011;3648;50.614;13.830;2022-09-09T13:57:53;1.20;;;0.77;;
7213;SDS011;3648;50.614;13.830;2022-09-09T14:00:22;1.33;;;0.60;;
7213;SDS011;3648;50.614;13.830;2022-09-09T14:02:50;3.73;;;0.90;;
7213;SDS011;3648;50.614;13.830;2022-09-09T14:05:20;1.13;;;1.03;;
7213;SDS011;3648;50.614;13.830;2022-09-09T14:07:48;2.20;;;0.80;;
7213;SDS011;3648;50.614;13.830;2022-09-09T14:10:16;1.03;;;0.80;;
7213;SDS011;3648;50.614;13.830;2022-09-09T14:12:44;1.80;;;0.70;;
7213;SDS011;3648;50.614;13.830;2022-09-09T14:15:12;0.83;;;0.43;;
7213;SDS011;3648;50.614;13.830;2022-09-09T14:17:39;0.50;;;0.50;;
7213;SDS011;3648;50.614;13.830;2022-09-09T14:20:07;1.33;;;0.70;;
7213;SDS011;3648;50.614;13.830;2022-09-09T14:22:37;1.57;;;0.70;;
7213;SDS011;3648;50.614;13.830;2022-09-09T14:25:06;2.40;;;0.70;;
7213;SDS011;3648;50.614;13.830;2022-09-09T14:27:34;1.10;;;0.57;;
7213;SDS011;3648;50.614;13.830;2022-09-09T14:30:03;0.37;;;0.37;;
7213;SDS011;3648;50.614;13.830;2022-09-09T14:32:31;0.57;;;0.40;;
7213;SDS011;3648;50.614;13.830;2022-09-09T14:34:58;0.50;;;0.50;;
7213;SDS011;3648;50.614;13.830;2022-09-09T14:37:26;0.97;;;0.53;;
7213;SDS011;3648;50.614;13.830;2022-09-09T14:39:56;0.77;;;0.57;;
7213;SDS011;3648;50.614;13.830;2022-09-09T14:42:23;1.53;;;0.80;;
7213;SDS011;3648;50.614;13.830;2022-09-09T14:44:51;1.00;;;0.63;;
7213;SDS011;3648;50.614;13.830;2022-09-09T14:47:19;0.60;;;0.50;;
7213;SDS011;3648;50.614;13.830;2022-09-09T14:49:47;0.77;;;0.40;;
7213;SDS011;3648;50.614;13.830;2022-09-09T14:52:15;1.00;;;0.60;;
7213;SDS011;3648;50.614;13.830;2022-09-09T14:54:42;2.57;;;0.60;;
7213;SDS011;3648;50.614;13.830;2022-09-09T14:57:09;1.97;;;0.70;;
7213;SDS011;3648;50.614;13.830;2022-09-09T14:59:36;0.87;;;0.40;;
7213;SDS011;3648;50.614;13.830;2022-09-09T15:02:04;0.50;;;0.50;;
7213;SDS011;3648;50.614;13.830;2022-09-09T15:04:33;2.20;;;0.90;;
7213;SDS011;3648;50.614;13.830;2022-09-09T15:07:00;1.07;;;0.47;;
7213;SDS011;3648;50.614;13.830;2022-09-09T15:09:28;0.83;;;0.70;;
7213;SDS011;3648;50.614;13.830;2022-09-09T15:11:55;1.07;;;0.60;;
7213;SDS011;3648;50.614;13.830;2022-09-09T15:14:22;1.53;;;0.70;;
7213;SDS011;3648;50.614;13.830;2022-09-09T15:16:51;1.70;;;0.60;;
7213;SDS011;3648;50.614;13.830;2022-09-09T15:19:18;2.23;;;0.80;;
7213;SDS011;3648;50.614;13.830;2022-09-09T15:21:48;0.93;;;0.60;;
7213;SDS011;3648;50.614;13.830;2022-09-09T15:24:17;1.50;;;0.30;;
7213;SDS011;3648;50.614;13.830;2022-09-09T15:26:44;0.60;;;0.47;;
7213;SDS011;3648;50.614;13.830;2022-09-09T15:29:13;0.90;;;0.50;;